Time;durP1;ratioP1;P1;durP2;ratioP2;P2;SDS_P1;SDS_P2;PMS_P1;PMS_P2;Temp;Humidity;BMP_temperature;BMP_pressure;BME280_temperature;BME280_humidity;BME280_pressure;Samples;Min_cycle;Max_cycle;Signal;HPM_P1;HPM_P2
2023/05/17 00:02:02;;;;;;;1.58;1.10;;;18.50;66.50;;;;;;4995498;28;20192;-66
2023/05/17 00:04:29;;;;;;;1.92;0.90;;;18.40;66.40;;;;;;5011737;28;20350;-65
2023/05/17 00:06:55;;;;;;;1.13;1.05;;;18.50;66.60;;;;;;5011383;28;20286;-65
2023/05/17 00:09:20;;;;;;;0.95;0.90;;;18.50;66.50;;;;;;5012740;28;20192;-65
2023/05/17 00:11:46;;;;;;;1.10;0.90;;;18.50;66.40;;;;;;4995364;28;20669;-65
2023/05/17 00:14:12;;;;;;;1.13;1.13;;;18.40;66.30;;;;;;4995139;28;20203;-65
2023/05/17 00:16:38;;;;;;;1.17;1.00;;;18.50;66.40;;;;;;4993398;28;20303;-65
2023/05/17 00:19:04;;;;;;;1.27;1.10;;;18.40;66.30;;;;;;4995166;28;20180;-65
2023/05/17 00:21:30;;;;;;;1.10;1.00;;;18.40;66.20;;;;;;5011288;28;20606;-65
2023/05/17 00:23:55;;;;;;;1.60;0.80;;;18.40;66.20;;;;;;4994829;28;20226;-65
2023/05/17 00:26:21;;;;;;;1.00;1.00;;;18.40;66.10;;;;;;4994657;28;20687;-65
2023/05/17 00:28:47;;;;;;;1.23;1.00;;;18.40;67.00;;;;;;5011146;28;20192;-65
2023/05/17 00:31:13;;;;;;;0.80;0.80;;;18.40;66.20;;;;;;5011520;28;20199;-65
2023/05/17 00:33:39;;;;;;;1.75;1.00;;;18.50;66.30;;;;;;5012342;28;20187;-65
2023/05/17 00:36:05;;;;;;;1.25;0.82;;;18.40;66.20;;;;;;5010826;28;20230;-65
2023/05/17 00:38:30;;;;;;;1.02;0.93;;;18.40;66.20;;;;;;5010980;28;20727;-65
2023/05/17 00:40:56;;;;;;;0.93;0.90;;;18.40;66.10;;;;;;5027588;28;20191;-65
2023/05/17 00:43:24;;;;;;;0.93;0.88;;;18.40;66.20;;;;;;5010940;28;20227;-66
2023/05/17 00:45:51;;;;;;;1.45;0.90;;;18.40;66.20;;;;;;5011893;28;20204;-65
2023/05/17 00:48:19;;;;;;;1.52;0.90;;;18.40;66.20;;;;;;4996897;28;20234;-65
2023/05/17 00:50:46;;;;;;;0.75;0.75;;;18.40;66.20;;;;;;5016109;28;20277;-66
2023/05/17 00:53:15;;;;;;;1.88;1.10;;;18.40;66.20;;;;;;5014971;28;20191;-66
2023/05/17 00:55:44;;;;;;;1.23;0.95;;;18.40;66.20;;;;;;4998454;28;20223;-66
2023/05/17 00:58:14;;;;;;;1.98;1.00;;;18.40;66.10;;;;;;5014703;28;20267;-66
2023/05/17 01:00:40;;;;;;;1.42;0.90;;;18.40;66.20;;;;;;5031279;28;20204;-66
2023/05/17 01:03:06;;;;;;;0.90;0.90;;;18.40;66.20;;;;;;5010036;28;20185;-65
2023/05/17 01:05:33;;;;;;;1.58;1.33;;;18.50;66.20;;;;;;5028376;28;20211;-65
2023/05/17 01:07:59;;;;;;;0.93;0.90;;;18.40;66.10;;;;;;4998136;28;20211;-66
2023/05/17 01:10:47;;;;;;;1.25;0.80;;;18.40;66.10;;;;;;5015878;28;20192;-65
2023/05/17 01:13:39;;;;;;;0.82;0.75;;;18.50;66.10;;;;;;5031269;28;20200;-65
2023/05/17 01:16:24;;;;;;;1.65;1.08;;;18.50;66.10;;;;;;4998187;28;20216;-65
2023/05/17 01:19:52;;;;;;;1.30;0.90;;;18.40;66.10;;;;;;5031222;28;20204;-65
2023/05/17 01:22:48;;;;;;;1.45;0.90;;;18.50;66.10;;;;;;5014463;28;20202;-65
2023/05/17 01:25:54;;;;;;;1.83;1.13;;;18.40;66.00;;;;;;5014412;28;20224;-65
2023/05/17 01:28:22;;;;;;;1.10;1.00;;;18.40;66.00;;;;;;5014245;28;20195;-65
2023/05/17 01:30:51;;;;;;;1.10;1.00;;;18.50;66.10;;;;;;4997738;28;20188;-65
2023/05/17 01:33:19;;;;;;;1.25;0.98;;;18.40;66.00;;;;;;5014478;28;20196;-65
2023/05/17 01:35:44;;;;;;;1.00;0.90;;;18.40;66.00;;;;;;5022164;28;20223;-65
2023/05/17 01:38:10;;;;;;;1.20;0.90;;;18.40;65.90;;;;;;5030537;28;20287;-65
2023/05/17 01:40:47;;;;;;;0.90;0.90;;;18.40;65.90;;;;;;5014203;28;20218;-65
2023/05/17 01:43:50;;;;;;;0.98;0.93;;;18.40;65.90;;;;;;5014355;28;20218;-65
2023/05/17 01:46:31;;;;;;;0.90;0.90;;;18.40;65.80;;;;;;5024286;28;20212;-65
2023/05/17 01:49:28;;;;;;;1.15;0.80;;;18.40;65.90;;;;;;5010751;28;20196;-65
2023/05/17 01:52:24;;;;;;;1.23;1.00;;;18.40;65.90;;;;;;5030354;28;20188;-65
2023/05/17 01:55:15;;;;;;;0.80;0.80;;;18.40;65.80;;;;;;5030464;28;20204;-65
2023/05/17 01:57:46;;;;;;;1.73;1.00;;;18.40;65.70;;;;;;5013756;28;20215;-65
2023/05/17 02:00:13;;;;;;;1.05;1.05;;;18.40;66.10;;;;;;5012413;28;20215;-65
2023/05/17 02:02:44;;;;;;;0.90;0.90;;;18.40;65.80;;;;;;5029632;28;20250;-66
2023/05/17 02:05:10;;;;;;;1.33;1.10;;;18.40;65.80;;;;;;5013710;28;20666;-65
2023/05/17 02:07:39;;;;;;;1.20;1.10;;;18.40;65.80;;;;;;5013705;28;20234;-65
2023/05/17 02:10:05;;;;;;;1.40;0.93;;;18.40;65.80;;;;;;5014175;28;20184;-65
2023/05/17 02:12:31;;;;;;;0.95;0.70;;;18.40;65.70;;;;;;5013476;28;20196;-66
2023/05/17 02:14:57;;;;;;;1.10;1.00;;;18.40;65.70;;;;;;5013257;28;20188;-66
2023/05/17 02:17:23;;;;;;;1.30;0.90;;;18.40;65.60;;;;;;5013186;28;20204;-66
2023/05/17 02:19:49;;;;;;;1.10;1.00;;;18.50;65.90;;;;;;5013190;28;20280;-65
2023/05/17 02:22:15;;;;;;;0.80;0.80;;;18.40;65.60;;;;;;5021126;28;20191;-66
2023/05/17 02:24:40;;;;;;;0.85;0.85;;;18.50;66.50;;;;;;5012967;28;20220;-65
2023/05/17 02:27:06;;;;;;;1.83;0.82;;;18.40;65.60;;;;;;4996844;28;20216;-65
2023/05/17 02:29:33;;;;;;;0.70;0.70;;;18.40;65.70;;;;;;5014718;28;20239;-65
2023/05/17 02:31:58;;;;;;;0.80;0.80;;;18.50;65.60;;;;;;5013043;28;20195;-65
2023/05/17 02:34:24;;;;;;;1.85;0.90;;;18.50;65.70;;;;;;5013004;28;20184;-66
2023/05/17 02:36:51;;;;;;;1.27;1.08;;;18.40;65.60;;;;;;4996414;28;20212;-65
2023/05/17 02:39:17;;;;;;;1.02;0.93;;;18.40;65.40;;;;;;5013504;28;20261;-65
2023/05/17 02:41:43;;;;;;;0.77;0.77;;;18.50;65.60;;;;;;4996781;28;20688;-64
2023/05/17 02:44:08;;;;;;;0.88;0.80;;;18.40;65.40;;;;;;5029377;28;20218;-65
2023/05/17 02:46:34;;;;;;;1.83;1.10;;;18.40;65.50;;;;;;5012968;28;20216;-65
2023/05/17 02:49:00;;;;;;;1.25;0.80;;;18.40;65.30;;;;;;5029370;28;20568;-65
2023/05/17 02:51:26;;;;;;;1.52;1.02;;;18.50;65.30;;;;;;5015735;28;20194;-65
2023/05/17 02:53:52;;;;;;;1.13;0.70;;;18.40;65.50;;;;;;5013849;28;20194;-66
2023/05/17 02:56:18;;;;;;;1.63;0.88;;;18.40;65.50;;;;;;4996192;28;20203;-65
2023/05/17 02:58:44;;;;;;;0.88;0.88;;;18.40;65.40;;;;;;4994430;28;20188;-65
2023/05/17 03:01:10;;;;;;;0.70;0.70;;;18.40;65.40;;;;;;5012576;28;20203;-65
2023/05/17 03:03:36;;;;;;;1.23;0.90;;;18.50;65.60;;;;;;4992563;28;20243;-65
2023/05/17 03:06:04;;;;;;;0.82;0.63;;;18.40;65.40;;;;;;4996428;28;20200;-65
2023/05/17 03:08:30;;;;;;;1.02;0.90;;;18.40;65.30;;;;;;5029021;28;20199;-65
2023/05/17 03:10:57;;;;;;;0.88;0.77;;;18.40;65.30;;;;;;5012099;28;20184;-65
2023/05/17 03:13:23;;;;;;;1.08;0.98;;;18.40;65.30;;;;;;5004197;28;20188;-66
2023/05/17 03:15:49;;;;;;;0.80;0.80;;;18.40;65.20;;;;;;5003903;28;20219;-64
2023/05/17 03:18:15;;;;;;;1.17;0.73;;;18.40;65.20;;;;;;5007217;28;20208;-65
2023/05/17 03:20:42;;;;;;;1.48;0.85;;;18.40;65.20;;;;;;5025231;28;20199;-64
2023/05/17 03:23:08;;;;;;;1.02;0.77;;;18.40;65.20;;;;;;5021325;28;20188;-65
2023/05/17 03:25:41;;;;;;;0.80;0.77;;;18.40;65.20;;;;;;5012077;28;20213;-65
2023/05/17 03:28:06;;;;;;;1.27;1.08;;;18.40;65.20;;;;;;5028352;28;20705;-65
2023/05/17 03:30:32;;;;;;;0.82;0.80;;;18.40;65.20;;;;;;5020977;28;20193;-65
2023/05/17 03:32:58;;;;;;;0.77;0.77;;;18.40;65.20;;;;;;5017116;28;20184;-65
2023/05/17 03:35:24;;;;;;;1.25;0.73;;;18.40;65.20;;;;;;5006866;28;20206;-66
2023/05/17 03:37:53;;;;;;;1.20;0.73;;;18.40;65.20;;;;;;5009752;28;20184;-64
2023/05/17 03:40:19;;;;;;;0.80;0.80;;;18.50;65.30;;;;;;5000852;28;20652;-65
2023/05/17 03:42:45;;;;;;;1.00;0.80;;;18.40;65.20;;;;;;5000331;28;20181;-64
2023/05/17 03:45:11;;;;;;;1.75;0.95;;;18.40;65.20;;;;;;4996753;28;20266;-65
2023/05/17 03:47:37;;;;;;;0.70;0.70;;;18.50;65.30;;;;;;5004087;28;20238;-66
2023/05/17 03:50:05;;;;;;;0.95;0.85;;;18.40;65.20;;;;;;5020379;28;20250;-65
2023/05/17 03:52:31;;;;;;;1.50;1.05;;;18.40;65.20;;;;;;5011780;28;20238;-66
2023/05/17 03:54:58;;;;;;;1.10;0.70;;;18.40;65.20;;;;;;5011815;28;20192;-64
2023/05/17 03:57:24;;;;;;;0.90;0.90;;;18.40;65.20;;;;;;4997168;28;20215;-65
2023/05/17 03:59:51;;;;;;;0.98;0.80;;;18.40;65.20;;;;;;5001783;28;20196;-65
2023/05/17 04:02:18;;;;;;;1.08;0.85;;;18.50;65.20;;;;;;5011503;28;20195;-65
2023/05/17 04:04:51;;;;;;;0.95;0.90;;;18.50;65.30;;;;;;5003165;28;20215;-64
2023/05/17 04:07:18;;;;;;;1.20;0.98;;;18.40;65.10;;;;;;5028102;28;20188;-65
2023/05/17 04:09:45;;;;;;;0.70;0.65;;;18.40;65.10;;;;;;5002452;28;20188;-64
2023/05/17 04:12:11;;;;;;;1.10;1.00;;;18.50;65.30;;;;;;4999876;28;20279;-64
2023/05/17 04:14:37;;;;;;;1.42;0.60;;;18.40;65.10;;;;;;5016158;28;20579;-64
2023/05/17 04:17:04;;;;;;;1.30;0.80;;;18.40;65.00;;;;;;5018902;28;20200;-65
2023/05/17 04:19:30;;;;;;;0.75;0.75;;;18.40;65.00;;;;;;5003157;28;20222;-65
2023/05/17 04:21:56;;;;;;;0.70;0.70;;;18.40;65.00;;;;;;4994303;28;20222;-66
2023/05/17 04:24:24;;;;;;;1.10;0.90;;;18.40;65.00;;;;;;5003040;28;20318;-66
2023/05/17 04:26:51;;;;;;;0.80;0.80;;;18.50;65.00;;;;;;4994670;28;20208;-66
2023/05/17 04:29:21;;;;;;;0.60;0.60;;;18.40;65.00;;;;;;4995705;28;20188;-66
2023/05/17 04:31:48;;;;;;;0.95;0.90;;;18.40;65.00;;;;;;5011316;28;20184;-66
2023/05/17 04:34:14;;;;;;;1.38;0.80;;;18.50;65.00;;;;;;5028017;28;20278;-66
2023/05/17 04:36:40;;;;;;;0.60;0.60;;;18.40;64.90;;;;;;4994972;28;20236;-66
2023/05/17 04:39:06;;;;;;;1.20;0.70;;;18.50;64.90;;;;;;4991677;28;20239;-66
2023/05/17 04:41:33;;;;;;;1.38;0.85;;;18.50;65.00;;;;;;5016063;28;20575;-65
2023/05/17 04:43:59;;;;;;;0.80;0.80;;;18.40;64.90;;;;;;5009931;28;20216;-66
2023/05/17 04:46:30;;;;;;;0.98;0.98;;;18.40;64.80;;;;;;4992222;28;20767;-65
2023/05/17 04:48:56;;;;;;;0.85;0.85;;;18.40;64.90;;;;;;5026084;28;20194;-65
2023/05/17 04:51:23;;;;;;;0.80;0.80;;;18.50;64.90;;;;;;5011553;28;20196;-65
2023/05/17 04:53:49;;;;;;;1.10;0.90;;;18.50;64.90;;;;;;5027323;28;20187;-66
2023/05/17 04:56:17;;;;;;;0.90;0.70;;;18.50;65.00;;;;;;5022691;28;20213;-65
2023/05/17 04:58:43;;;;;;;1.10;0.98;;;18.50;64.90;;;;;;5024283;28;20279;-66
2023/05/17 05:01:10;;;;;;;0.90;0.70;;;18.50;64.90;;;;;;5019521;28;20223;-66
2023/05/17 05:03:37;;;;;;;1.13;0.98;;;18.40;64.90;;;;;;5019587;28;20227;-66
2023/05/17 05:06:05;;;;;;;1.63;0.90;;;18.50;64.90;;;;;;5007713;28;20672;-66
2023/05/17 05:08:33;;;;;;;0.80;0.80;;;18.50;64.90;;;;;;5005849;28;20682;-65
2023/05/17 05:10:59;;;;;;;1.00;0.80;;;18.50;64.90;;;;;;4994522;28;20231;-67
2023/05/17 05:13:25;;;;;;;0.93;0.90;;;18.50;64.90;;;;;;5027574;28;20215;-66
2023/05/17 05:15:52;;;;;;;1.17;0.90;;;18.50;64.90;;;;;;5010814;28;20250;-66
2023/05/17 05:18:18;;;;;;;0.88;0.80;;;18.50;64.80;;;;;;5010872;28;20227;-67
2023/05/17 05:20:47;;;;;;;1.10;0.82;;;18.50;64.60;;;;;;5002765;28;20278;-66
2023/05/17 05:23:13;;;;;;;1.08;0.80;;;18.50;64.70;;;;;;5019522;28;20239;-67
2023/05/17 05:25:43;;;;;;;2.08;0.93;;;18.50;65.50;;;;;;4994645;28;20216;-66
2023/05/17 05:28:10;;;;;;;1.10;0.82;;;18.50;64.70;;;;;;4983119;28;20184;-66
2023/05/17 05:30:39;;;;;;;1.15;0.90;;;18.50;64.60;;;;;;4999790;28;20714;-67
2023/05/17 05:33:05;;;;;;;0.93;0.85;;;18.50;64.70;;;;;;5018760;28;20195;-66
2023/05/17 05:35:31;;;;;;;1.33;0.90;;;18.50;64.70;;;;;;5030815;28;20278;-66
2023/05/17 05:37:59;;;;;;;1.48;0.73;;;18.50;64.70;;;;;;5014258;28;20188;-66
2023/05/17 05:40:25;;;;;;;0.60;0.60;;;18.50;64.70;;;;;;5014178;28;20195;-65
2023/05/17 05:42:51;;;;;;;0.98;0.95;;;18.50;64.70;;;;;;4997681;28;20184;-66
2023/05/17 05:45:17;;;;;;;0.75;0.75;;;18.50;64.70;;;;;;5013905;28;20212;-66
2023/05/17 05:47:46;;;;;;;1.00;0.77;;;18.50;64.70;;;;;;5030232;28;20569;-66
2023/05/17 05:50:12;;;;;;;1.33;0.90;;;18.50;64.70;;;;;;5030393;28;20213;-66
2023/05/17 05:52:39;;;;;;;1.25;1.00;;;18.50;64.70;;;;;;4997760;28;20281;-66
2023/05/17 05:55:05;;;;;;;1.02;0.88;;;18.60;64.80;;;;;;4997576;28;20683;-66
2023/05/17 05:57:31;;;;;;;1.10;1.00;;;18.60;64.80;;;;;;5030423;28;20717;-66
2023/05/17 05:59:58;;;;;;;1.02;0.90;;;18.60;64.80;;;;;;5022133;28;20324;-67
2023/05/17 06:02:25;;;;;;;1.73;0.90;;;18.50;64.60;;;;;;4997719;28;20196;-65
2023/05/17 06:04:50;;;;;;;0.73;0.70;;;18.60;64.70;;;;;;5013283;28;20208;-65
2023/05/17 06:07:16;;;;;;;1.20;0.80;;;18.50;64.50;;;;;;5029919;28;20184;-66
2023/05/17 06:09:42;;;;;;;1.10;0.80;;;18.60;64.80;;;;;;5014902;28;20199;-66
2023/05/17 06:12:08;;;;;;;1.60;0.90;;;18.60;64.60;;;;;;5029748;28;20176;-66
2023/05/17 06:14:36;;;;;;;1.38;0.88;;;18.60;64.70;;;;;;5013423;28;20228;-66
2023/05/17 06:17:02;;;;;;;1.23;0.93;;;18.60;64.70;;;;;;5014645;28;20242;-66
2023/05/17 06:19:27;;;;;;;0.65;0.57;;;18.60;64.60;;;;;;5013747;28;20187;-66
2023/05/17 06:21:53;;;;;;;1.52;0.80;;;18.60;64.70;;;;;;5013320;28;20196;-66
2023/05/17 06:24:19;;;;;;;1.55;0.95;;;18.60;64.70;;;;;;5013333;28;20216;-66
2023/05/17 06:26:45;;;;;;;1.30;0.90;;;18.60;64.70;;;;;;5013513;28;20208;-65
2023/05/17 06:29:12;;;;;;;0.95;0.85;;;18.60;64.80;;;;;;5014331;28;20185;-66
2023/05/17 06:31:37;;;;;;;2.72;1.48;;;18.60;64.80;;;;;;5013680;28;20196;-66
2023/05/17 06:34:03;;;;;;;1.35;1.08;;;18.60;64.80;;;;;;5029575;28;20191;-66
2023/05/17 06:36:29;;;;;;;1.60;1.00;;;18.60;64.90;;;;;;4996518;28;20219;-65
2023/05/17 06:38:55;;;;;;;0.88;0.88;;;18.60;64.80;;;;;;4996720;28;20192;-66
2023/05/17 06:41:20;;;;;;;0.82;0.70;;;18.60;64.70;;;;;;5012660;28;20203;-67
2023/05/17 06:43:46;;;;;;;3.35;1.00;;;18.70;65.00;;;;;;5012789;28;20216;-66
2023/05/17 06:46:12;;;;;;;1.17;1.00;;;18.70;64.90;;;;;;4995686;28;20212;-65
2023/05/17 06:48:37;;;;;;;2.28;1.10;;;18.70;64.70;;;;;;5012656;28;20230;-66
2023/05/17 06:51:03;;;;;;;1.00;0.90;;;18.70;64.70;;;;;;5012753;28;20192;-65
2023/05/17 06:53:29;;;;;;;1.88;0.95;;;18.70;64.80;;;;;;5012769;28;20192;-66
2023/05/17 06:55:55;;;;;;;1.52;1.00;;;18.70;64.70;;;;;;5013633;28;20278;-66
2023/05/17 06:58:21;;;;;;;1.73;1.20;;;18.70;64.70;;;;;;4996523;28;20203;-66
2023/05/17 07:00:47;;;;;;;1.90;1.23;;;18.70;64.60;;;;;;4996608;28;20200;-67
2023/05/17 07:03:12;;;;;;;1.08;1.00;;;18.70;64.70;;;;;;4996054;28;20183;-65
2023/05/17 07:05:38;;;;;;;0.80;0.80;;;18.70;64.70;;;;;;5022266;28;20208;-66
2023/05/17 07:08:04;;;;;;;1.10;0.90;;;18.70;64.70;;;;;;5027437;28;20192;-65
2023/05/17 07:10:30;;;;;;;1.25;0.90;;;18.80;64.90;;;;;;5012663;28;20237;-66
2023/05/17 07:12:56;;;;;;;1.83;1.05;;;18.70;64.70;;;;;;4996041;28;20195;-66
2023/05/17 07:15:22;;;;;;;1.48;1.00;;;18.70;64.70;;;;;;4996277;28;20248;-66
2023/05/17 07:17:47;;;;;;;2.13;1.02;;;18.70;64.80;;;;;;5012122;28;20218;-66
2023/05/17 07:20:13;;;;;;;2.20;1.20;;;18.70;64.70;;;;;;5012558;28;20185;-66
2023/05/17 07:22:39;;;;;;;2.15;1.25;;;18.80;64.60;;;;;;5012253;28;20253;-66
2023/05/17 07:25:06;;;;;;;1.48;1.10;;;18.70;64.60;;;;;;5011846;28;20295;-66
2023/05/17 07:27:31;;;;;;;1.35;1.00;;;18.80;64.80;;;;;;5011885;28;20655;-66
2023/05/17 07:29:57;;;;;;;2.00;1.20;;;18.80;64.60;;;;;;5004156;28;20199;-66
2023/05/17 07:32:23;;;;;;;1.13;1.02;;;18.80;64.60;;;;;;5020385;28;20207;-66
2023/05/17 07:34:49;;;;;;;2.38;1.13;;;18.80;64.50;;;;;;5012338;28;20196;-66
2023/05/17 07:37:15;;;;;;;1.60;1.10;;;18.80;64.40;;;;;;4995398;28;20188;-66
2023/05/17 07:39:40;;;;;;;2.20;1.40;;;18.80;64.50;;;;;;5012203;28;20184;-67
2023/05/17 07:42:06;;;;;;;1.45;1.10;;;18.80;64.60;;;;;;5011652;28;20200;-66
2023/05/17 07:44:32;;;;;;;2.35;1.10;;;18.80;64.50;;;;;;5028168;28;20230;-65
2023/05/17 07:46:58;;;;;;;1.27;1.00;;;18.80;64.40;;;;;;5027984;28;20212;-65
2023/05/17 07:49:26;;;;;;;1.65;1.10;;;18.90;64.70;;;;;;5028280;28;20188;-66
2023/05/17 07:51:52;;;;;;;1.73;0.93;;;18.90;64.50;;;;;;5012978;28;20191;-66
2023/05/17 07:54:28;;;;;;;1.55;1.20;;;18.90;64.70;;;;;;5011623;28;20326;-66
2023/05/17 07:56:54;;;;;;;2.25;1.35;;;18.90;64.60;;;;;;5010638;28;20746;-65
2023/05/17 07:59:21;;;;;;;1.52;1.00;;;18.90;64.50;;;;;;5012810;28;20231;-66
2023/05/17 08:01:47;;;;;;;1.75;1.13;;;18.90;64.40;;;;;;4995342;28;20249;-66
2023/05/17 08:04:15;;;;;;;1.65;1.00;;;18.90;64.50;;;;;;5011296;28;20278;-66
2023/05/17 08:06:44;;;;;;;1.02;0.82;;;18.90;64.40;;;;;;4991781;28;20209;-66
2023/05/17 08:09:10;;;;;;;1.63;1.08;;;18.90;64.70;;;;;;5011215;28;20192;-67
2023/05/17 08:11:36;;;;;;;1.08;0.80;;;18.90;64.70;;;;;;5011326;28;20198;-65
2023/05/17 08:14:02;;;;;;;2.20;1.27;;;18.90;64.60;;;;;;4995235;28;20262;-66
2023/05/17 08:16:28;;;;;;;2.28;1.02;;;18.90;64.60;;;;;;5011212;28;20212;-65
2023/05/17 08:18:54;;;;;;;2.58;1.25;;;18.90;64.30;;;;;;5012812;28;20196;-66
2023/05/17 08:21:19;;;;;;;1.77;0.95;;;18.90;64.50;;;;;;4995271;28;20184;-65
2023/05/17 08:23:45;;;;;;;1.40;1.23;;;19.00;64.80;;;;;;5011517;28;20219;-66
2023/05/17 08:26:11;;;;;;;1.50;1.15;;;18.90;64.60;;;;;;5012265;28;20250;-66
2023/05/17 08:28:38;;;;;;;1.45;1.20;;;18.90;64.80;;;;;;5011208;28;20184;-65
2023/05/17 08:31:05;;;;;;;1.52;1.20;;;19.00;64.90;;;;;;4992778;28;20210;-66
2023/05/17 08:33:31;;;;;;;1.00;1.00;;;19.00;64.80;;;;;;5011208;28;20195;-66
2023/05/17 08:36:00;;;;;;;1.73;1.10;;;19.00;64.90;;;;;;5011240;28;20208;-66
2023/05/17 08:38:26;;;;;;;1.10;1.00;;;19.00;65.00;;;;;;5005596;28;20188;-65
2023/05/17 08:40:55;;;;;;;2.00;1.13;;;19.00;64.90;;;;;;5012280;28;20187;-65
2023/05/17 08:43:23;;;;;;;1.30;1.20;;;19.00;65.00;;;;;;5019378;28;20184;-65
2023/05/17 08:45:51;;;;;;;1.73;1.10;;;19.00;65.00;;;;;;5021019;28;20204;-64
2023/05/17 08:48:20;;;;;;;1.02;0.90;;;19.00;64.50;;;;;;5026831;28;20219;-66
2023/05/17 08:50:49;;;;;;;1.67;1.10;;;19.00;64.60;;;;;;4995072;28;20199;-65
2023/05/17 08:53:16;;;;;;;1.00;1.00;;;19.00;64.50;;;;;;4993973;28;20193;-66
2023/05/17 08:55:48;;;;;;;1.30;1.15;;;19.00;64.60;;;;;;5005060;28;20213;-66
2023/05/17 08:58:25;;;;;;;1.67;0.95;;;19.00;64.70;;;;;;5010229;28;20189;-67
2023/05/17 09:00:54;;;;;;;1.60;0.98;;;19.00;64.40;;;;;;5012035;28;20192;-66
2023/05/17 09:03:22;;;;;;;2.25;1.20;;;19.00;64.60;;;;;;5010780;28;20226;-66
2023/05/17 09:05:52;;;;;;;3.00;1.17;;;19.00;64.40;;;;;;4994647;28;20354;-66
2023/05/17 09:08:22;;;;;;;1.80;1.10;;;19.00;64.30;;;;;;4994432;28;20200;-66
2023/05/17 09:10:49;;;;;;;1.95;1.38;;;19.00;64.70;;;;;;4995375;28;20185;-66
2023/05/17 09:13:15;;;;;;;2.28;1.17;;;19.00;64.70;;;;;;5030177;28;20665;-66
2023/05/17 09:15:47;;;;;;;1.20;1.10;;;19.00;64.60;;;;;;4998164;28;20200;-66
2023/05/17 09:18:13;;;;;;;1.48;1.20;;;19.00;64.50;;;;;;4998269;28;20184;-66
2023/05/17 09:20:40;;;;;;;1.20;1.10;;;19.00;64.60;;;;;;5015752;28;20267;-67
2023/05/17 09:23:09;;;;;;;1.85;1.33;;;19.00;64.60;;;;;;5015694;28;20191;-66
2023/05/17 09:25:36;;;;;;;2.10;1.10;;;19.00;64.60;;;;;;5014222;28;20247;-66
2023/05/17 09:28:06;;;;;;;2.88;1.17;;;19.00;64.20;;;;;;5014192;28;20575;-65
2023/05/17 09:30:38;;;;;;;3.00;1.00;;;19.00;64.10;;;;;;5014614;28;20184;-65
2023/05/17 09:33:09;;;;;;;1.60;1.27;;;19.00;64.10;;;;;;5014136;28;20283;-66
2023/05/17 09:35:37;;;;;;;1.40;1.00;;;19.00;64.00;;;;;;4998004;28;20262;-66
2023/05/17 09:38:11;;;;;;;1.92;1.13;;;19.00;63.90;;;;;;5030388;28;20564;-66
2023/05/17 09:40:43;;;;;;;2.47;1.38;;;19.00;63.40;;;;;;5014203;28;20192;-66
2023/05/17 09:43:11;;;;;;;2.20;1.50;;;19.00;64.00;;;;;;4997697;28;20188;-66
2023/05/17 09:45:37;;;;;;;1.58;1.08;;;19.00;64.00;;;;;;5013840;28;20588;-67
2023/05/17 09:48:17;;;;;;;1.48;1.00;;;19.10;64.00;;;;;;5022060;28;20195;-66
2023/05/17 09:50:51;;;;;;;1.33;1.05;;;19.10;63.90;;;;;;4997759;28;20188;-66
2023/05/17 09:53:29;;;;;;;1.75;1.33;;;19.00;63.80;;;;;;4997542;28;20196;-66
2023/05/17 09:55:58;;;;;;;1.75;1.50;;;19.00;63.80;;;;;;5030250;28;20199;-66
2023/05/17 09:58:27;;;;;;;1.77;1.25;;;19.10;64.00;;;;;;5030142;28;20216;-65
2023/05/17 10:01:05;;;;;;;2.28;1.40;;;19.10;64.40;;;;;;4997355;28;20196;-66
2023/05/17 10:03:36;;;;;;;3.65;1.30;;;19.10;64.20;;;;;;5007583;28;20723;-64
2023/05/17 10:06:07;;;;;;;1.30;1.10;;;19.00;63.90;;;;;;5010358;28;20213;-66
2023/05/17 10:08:33;;;;;;;1.48;1.30;;;19.10;64.20;;;;;;5023196;28;20203;-66
2023/05/17 10:11:07;;;;;;;2.05;1.20;;;19.10;64.20;;;;;;5015161;28;20729;-65
2023/05/17 10:13:47;;;;;;;1.98;1.40;;;19.10;63.90;;;;;;4997231;28;20188;-65
2023/05/17 10:16:15;;;;;;;1.63;1.30;;;19.10;64.40;;;;;;5029653;28;20208;-64
2023/05/17 10:18:41;;;;;;;1.30;1.20;;;19.10;64.40;;;;;;5013465;28;20184;-65
2023/05/17 10:21:09;;;;;;;1.63;1.38;;;19.10;64.20;;;;;;4996454;28;20195;-66
2023/05/17 10:23:37;;;;;;;1.38;1.20;;;19.10;64.50;;;;;;5013275;28;20177;-65
2023/05/17 10:26:04;;;;;;;2.85;1.23;;;19.10;64.40;;;;;;5013015;28;20200;-66
2023/05/17 10:28:31;;;;;;;1.50;1.30;;;19.10;64.60;;;;;;5029911;28;20198;-65
2023/05/17 10:30:58;;;;;;;1.90;1.30;;;19.10;64.50;;;;;;5013488;28;20188;-65
2023/05/17 10:33:26;;;;;;;1.88;1.50;;;19.10;64.30;;;;;;5013094;28;20180;-65
2023/05/17 10:35:54;;;;;;;1.27;1.17;;;19.10;64.00;;;;;;5012939;28;20258;-64
2023/05/17 10:38:22;;;;;;;1.67;1.25;;;19.10;64.10;;;;;;5012717;28;20187;-65
2023/05/17 10:40:50;;;;;;;1.65;1.33;;;19.10;63.90;;;;;;5029551;28;20216;-66
2023/05/17 10:43:18;;;;;;;0.98;0.93;;;19.10;63.90;;;;;;5010802;28;20188;-66
2023/05/17 10:45:45;;;;;;;1.55;1.30;;;19.10;64.20;;;;;;4996490;28;20250;-66
2023/05/17 10:48:15;;;;;;;1.40;1.30;;;19.10;64.00;;;;;;5012674;28;20611;-66
2023/05/17 10:50:45;;;;;;;1.92;1.60;;;19.10;63.90;;;;;;5014063;28;20188;-67
2023/05/17 10:53:11;;;;;;;1.58;1.48;;;19.10;63.90;;;;;;5025134;28;20192;-67
2023/05/17 10:55:42;;;;;;;1.52;1.40;;;19.10;64.10;;;;;;5013889;28;20290;-66
2023/05/17 10:58:20;;;;;;;2.58;1.27;;;19.10;64.10;;;;;;5012805;28;20192;-67
2023/05/17 11:00:53;;;;;;;1.10;1.00;;;19.10;64.30;;;;;;5012559;28;20206;-67
2023/05/17 11:03:27;;;;;;;1.50;1.40;;;19.10;64.40;;;;;;4996294;28;20199;-67
2023/05/17 11:06:17;;;;;;;1.40;1.30;;;19.20;64.40;;;;;;5013444;28;20207;-65
2023/05/17 11:08:46;;;;;;;1.25;1.15;;;19.10;64.40;;;;;;5012919;28;20702;-66
2023/05/17 11:11:18;;;;;;;1.25;1.10;;;19.10;64.10;;;;;;5012367;28;20184;-65
2023/05/17 11:13:55;;;;;;;1.50;1.30;;;19.10;64.10;;;;;;5012374;28;20180;-67
2023/05/17 11:16:26;;;;;;;1.48;1.38;;;19.10;63.80;;;;;;5020776;28;20674;-66
2023/05/17 11:18:56;;;;;;;2.25;1.35;;;19.10;63.30;;;;;;5028903;28;20192;-66
2023/05/17 11:21:26;;;;;;;1.50;1.40;;;19.10;63.30;;;;;;5028606;28;20632;-66
2023/05/17 11:23:59;;;;;;;1.33;1.23;;;19.10;63.40;;;;;;5012453;28;20215;-66
2023/05/17 11:26:33;;;;;;;1.20;1.10;;;19.10;63.50;;;;;;4994921;28;20204;-67
2023/05/17 11:29:09;;;;;;;1.45;1.23;;;19.10;63.20;;;;;;4995954;28;20193;-66
2023/05/17 11:31:37;;;;;;;2.00;1.55;;;19.20;63.50;;;;;;5004305;28;20191;-66
2023/05/17 11:34:04;;;;;;;1.60;1.50;;;19.20;63.30;;;;;;5012077;28;20192;-66
2023/05/17 11:36:30;;;;;;;1.63;1.52;;;19.10;63.50;;;;;;5028332;28;20261;-66
2023/05/17 11:39:12;;;;;;;1.30;1.20;;;19.10;63.80;;;;;;5011992;28;20191;-66
2023/05/17 11:41:47;;;;;;;1.40;1.30;;;19.10;64.80;;;;;;5011895;28;20287;-66
2023/05/17 11:44:12;;;;;;;1.50;1.40;;;19.10;63.70;;;;;;5011646;28;20338;-66
2023/05/17 11:46:39;;;;;;;1.33;1.10;;;19.10;63.60;;;;;;5011673;28;20228;-66
2023/05/17 11:49:06;;;;;;;1.70;1.60;;;19.20;63.80;;;;;;4995651;28;20319;-66
2023/05/17 11:51:33;;;;;;;1.65;1.55;;;19.20;64.00;;;;;;4995842;28;20211;-66
2023/05/17 11:54:02;;;;;;;1.23;1.13;;;19.20;63.80;;;;;;5011781;28;20270;-66
2023/05/17 11:56:35;;;;;;;2.08;1.60;;;19.10;64.00;;;;;;5011464;28;20211;-67
2023/05/17 11:59:02;;;;;;;1.35;1.25;;;19.10;63.90;;;;;;5011553;28;20203;-66
2023/05/17 12:01:45;;;;;;;1.95;1.50;;;19.20;64.10;;;;;;4994946;28;20192;-66
2023/05/17 12:04:11;;;;;;;2.17;1.30;;;19.20;64.00;;;;;;5011531;28;20203;-66
2023/05/17 12:06:37;;;;;;;2.00;1.50;;;19.20;64.00;;;;;;4994897;28;20288;-66
2023/05/17 12:09:05;;;;;;;1.60;1.50;;;19.20;64.00;;;;;;4991731;28;20351;-66
2023/05/17 12:11:30;;;;;;;2.22;1.63;;;19.20;64.00;;;;;;5012277;28;20184;-67
2023/05/17 12:13:56;;;;;;;1.65;1.40;;;19.10;63.80;;;;;;5027847;28;20184;-66
2023/05/17 12:16:23;;;;;;;1.33;1.23;;;19.10;64.20;;;;;;5019721;28;20212;-66
2023/05/17 12:18:50;;;;;;;1.55;1.40;;;19.10;64.00;;;;;;5011624;28;20196;-66
2023/05/17 12:21:18;;;;;;;1.42;1.33;;;19.10;63.90;;;;;;5027986;28;20286;-66
2023/05/17 12:23:45;;;;;;;2.25;1.40;;;19.10;63.60;;;;;;5012342;28;20199;-66
2023/05/17 12:26:14;;;;;;;1.88;1.52;;;19.20;64.00;;;;;;5011251;28;20707;-66
2023/05/17 12:28:51;;;;;;;2.00;1.48;;;19.20;63.20;;;;;;5011492;28;20308;-66
2023/05/17 12:31:26;;;;;;;2.75;1.65;;;19.20;63.90;;;;;;5011434;28;20192;-66
2023/05/17 12:33:53;;;;;;;1.90;1.63;;;19.20;64.00;;;;;;5010963;28;20205;-66
2023/05/17 12:36:20;;;;;;;2.78;1.73;;;19.20;64.00;;;;;;5012096;28;20223;-66
2023/05/17 12:38:46;;;;;;;2.25;1.60;;;19.20;63.40;;;;;;4994816;28;20187;-66
2023/05/17 12:41:15;;;;;;;1.60;1.50;;;19.20;64.00;;;;;;4994956;28;20295;-65
2023/05/17 12:43:44;;;;;;;1.77;1.40;;;19.20;64.00;;;;;;5012307;28;20557;-66
2023/05/17 12:46:19;;;;;;;2.58;1.60;;;19.20;64.00;;;;;;5016200;28;20207;-66
2023/05/17 12:48:46;;;;;;;1.83;1.40;;;19.20;64.30;;;;;;5016351;28;20175;-66
2023/05/17 12:51:14;;;;;;;2.03;1.48;;;19.20;64.20;;;;;;5015073;28;20183;-66
2023/05/17 12:53:48;;;;;;;1.50;1.40;;;19.20;64.10;;;;;;4998786;28;20730;-66
2023/05/17 12:56:36;;;;;;;1.85;1.52;;;19.20;63.90;;;;;;5015907;28;20226;-65